LiveATC.Net - Listen to live air traffic control over the Internet!


ICAO: EHHV  IATA: QYI   Airport: Hilversum Airfield
City: Hilversum
Country: Netherlands   Continent: Europe
EHAM METAR Weather: EHAM 251725Z 31004KT 9999 FEW043 13/07 Q1037 NOSIG
EHHV Flight Activity (FlightAware)

EHHV CTAF
Feed Status: UP   Listeners: 0
Listen right in your browser - requires Flash (in browser, requires Flash)
Click here to listen with your own player (launches your MP3 player)
EHHV CTAF Audio Archives
FacilityFrequency
Hilversum Radio131.025

NOTICE

Unauthorized use prohibited. See LiveATC.net Terms of Service


Find LiveATC Audio Streams


Airport/ARTCC Code

Frequency Search
(e.g., 124.400, 128.75)
Site-wide search
 


Browse LiveATC Feeds
Top 50 LiveATC Feeds
Bad Weather Areas

LiveATC FAQ
Offer a LiveATC Feed
Contact LiveATC.net
Press Inquiries

LiveATC on iPhone
LiveATC on Android

Windows Phone
Windows 8/10

LiveATC Mobile
(Mobile browser)

ATC Audio Archives
Interesting Recordings

LiveATC Forums


Home Page
About LiveATC.net
Make a Donation
Terms of Use
Privacy Policy

Canadian Air Freqs

AIRMETs/SIGMETs

FAA Airport Status
Nat'l Airspace Status
Arrival Demand Charts


Server Software By:
Icecast.org
Liquidsoap